Flight Track Log - Related Links

Times and Time Zones

All times are in EDT time to prevent confusion due to time zone crossing. See the N12JD flight status page for this flight to view local times or setup timezone preferences in your user account.

Time Position Orientation Groundspeed Altitude Reporting Facility
EDT Latitude Longitude Course Direction KTS MPH feet Rate Location/Type
Sun 01:53:14 PM 35.9833 -86.5167 180° South 126 145 1,500  Level Nashville TRACON
Sun 01:54:32 PM 35.9500 -86.5000 158° South 180 207 3,000 677 Climbing Nashville TRACON
Sun 01:55:27 PM 35.9833 -86.4500 51° Northeast 235 270 3,000 595 Level Nashville TRACON
Sun 01:56:33 PM 36.0500 -86.4167 22° Northeast 218 251 4,200 1,471 Climbing Nashville TRACON
Sun 01:57:09 PM 36.0667 -86.4167 360° North 179 206 5,500 1,526 Climbing Nashville TRACON
Sun 01:58:27 PM 36.1333 -86.4000 11° North 178 205 7,100 1,217 Climbing Nashville TRACON
Sun 01:59:27 PM 36.1833 -86.3833 15° North 182 209 8,300 1,137 Climbing Nashville TRACON
Sun 02:00:02 PM 36.2158 -86.3825 North 182 209 8,900 1,263 Climbing Memphis Center
Sun 02:01:02 PM 36.2653 -86.3672 14° North 204 235 10,300 1,250 Climbing Memphis Center
Sun 02:02:02 PM 36.3131 -86.3597 North 212 244 11,400 1,200 Climbing Memphis Center
Sun 02:03:02 PM 36.3692 -86.3594 360° North 199 229 12,700 1,300 Climbing Memphis Center
Sun 02:04:02 PM 36.4214 -86.3569 North 193 222 14,000 1,250 Climbing Memphis Center
Sun 02:05:02 PM 36.4775 -86.3517 North 193 222 15,200 1,100 Climbing Memphis Center
Sun 02:06:02 PM 36.5303 -86.3722 343° North 193 222 16,200 1,000 Climbing Memphis Center
Sun 02:07:02 PM 36.5808 -86.3906 344° North 193 222 17,200 850 Climbing Memphis Center
Sun 02:08:02 PM 36.6336 -86.4111 343° North 193 222 17,900 750 Climbing Memphis Center
Sun 02:09:02 PM 36.6842 -86.4294 344° North 188 216 18,700 750 Climbing Memphis Center
Sun 02:10:02 PM 36.7411 -86.4500 344° North 194 223 19,400 650 Climbing Memphis Center
Sun 02:11:02 PM 36.8000 -86.4703 345° North 194 223 20,000 300 Climbing Memphis Center
Sun 02:12:02 PM 36.8611 -86.4933 343° North 208 239 20,000  Level Memphis Center
Sun 02:13:02 PM 36.9264 -86.5136 346° North 223 257 20,000  Level Memphis Center
Sun 02:14:02 PM 36.9919 -86.5414 341° North 239 275 20,000  Level Memphis Center
Sun 02:15:52 PM 37.1117 -86.5831 344° North 250 288 20,000  Level Indianapolis Center
Sun 02:16:55 PM 37.1792 -86.6089 343° North 250 288 20,000  Level Indianapolis Center
Sun 02:17:57 PM 37.2478 -86.6331 344° North 252 290 20,000  Level Indianapolis Center
Sun 02:18:59 PM 37.3147 -86.6572 344° North 249 287 20,000  Level Indianapolis Center
Sun 02:20:01 PM 37.3814 -86.6819 344° North 247 284 20,000  Level Indianapolis Center
Sun 02:21:03 PM 37.4589 -86.7103 344° North 245 282 20,000  Level Indianapolis Center
Sun 02:22:05 PM 37.5250 -86.7364 343° North 246 283 20,000  Level Indianapolis Center
Sun 02:23:07 PM 37.5847 -86.7589 343° North 248 285 20,000  Level Indianapolis Center
Sun 02:24:09 PM 37.6506 -86.7822 344° North 247 284 20,000  Level Indianapolis Center
Sun 02:25:11 PM 37.7308 -86.8136 343° North 250 288 20,000  Level Indianapolis Center
Sun 02:26:13 PM 37.7969 -86.8378 344° North 248 285 20,000  Level Indianapolis Center
Sun 02:27:15 PM 37.8639 -86.8625 344° North 250 288 20,000  Level Indianapolis Center
Sun 02:28:17 PM 37.9303 -86.8886 343° North 249 287 20,000  Level Indianapolis Center
Sun 02:29:19 PM 37.9975 -86.9128 344° North 250 288 20,000  Level Indianapolis Center
Sun 02:30:21 PM 38.0631 -86.9381 343° North 247 284 20,000  Level Indianapolis Center
Sun 02:31:23 PM 38.1292 -86.9625 344° North 248 285 20,000  Level Indianapolis Center
Sun 02:32:25 PM 38.2086 -86.9925 343° North 248 285 20,000  Level Indianapolis Center
Sun 02:33:27 PM 38.2697 -87.0150 344° North 245 282 20,000  Level Indianapolis Center
Sun 02:34:29 PM 38.3358 -87.0389 344° North 246 283 20,000  Level Indianapolis Center
Sun 02:35:31 PM 38.4017 -87.0658 342° North 248 285 20,000  Level Indianapolis Center
Sun 02:36:33 PM 38.4811 -87.0958 344° North 248 285 20,000  Level Indianapolis Center
Sun 02:37:35 PM 38.5475 -87.1211 343° North 248 285 20,000  Level Indianapolis Center
Sun 02:38:37 PM 38.6131 -87.1464 343° North 246 283 20,000  Level Indianapolis Center
Sun 02:39:39 PM 38.6792 -87.1717 343° North 247 284 20,000  Level Indianapolis Center
Sun 02:40:41 PM 38.7450 -87.1972 343° North 247 284 20,000  Level Indianapolis Center
Sun 02:41:43 PM 38.8103 -87.2214 344° North 245 282 20,000  Level Indianapolis Center
Sun 02:42:45 PM 38.8881 -87.2525 343° North 243 280 20,000  Level Indianapolis Center
Sun 02:43:48 PM 38.9522 -87.2758 344° North 240 276 20,000  Level Indianapolis Center
Sun 02:44:50 PM 39.0161 -87.3011 343° North 240 276 20,000  Level Indianapolis Center
Sun 02:45:52 PM 39.0803 -87.3258 343° North 240 276 20,000  Level Indianapolis Center
Sun 02:46:54 PM 39.1419 -87.3494 343° North 239 275 20,000  Level Indianapolis Center
Sun 02:47:56 PM 39.2047 -87.3733 344° North 238 274 20,000  Level Indianapolis Center
Sun 02:48:58 PM 39.2817 -87.4036 343° North 239 275 20,000  Level Indianapolis Center
Sun 02:50:00 PM 39.3447 -87.4297 342° North 239 275 20,000  Level Indianapolis Center
Sun 02:51:02 PM 39.4078 -87.4528 344° North 237 273 20,000  Level Indianapolis Center
Sun 02:52:04 PM 39.4708 -87.4775 343° North 237 273 20,000  Level Indianapolis Center
Sun 02:53:06 PM 39.5336 -87.5022 343° North 236 272 20,000  Level Indianapolis Center
Sun 02:54:08 PM 39.5975 -87.5286 342° North 239 275 20,000  Level Indianapolis Center
Sun 02:55:10 PM 39.6728 -87.5575 344° North 237 273 20,000  Level Indianapolis Center
Sun 02:56:12 PM 39.7353 -87.5825 343° North 236 272 20,000  Level Indianapolis Center
Sun 02:57:14 PM 39.7981 -87.6058 344° North 234 269 20,000  Level Indianapolis Center
Sun 02:58:16 PM 39.8614 -87.6319 342° North 237 273 20,000  Level Indianapolis Center
Sun 02:59:18 PM 39.9239 -87.6572 343° North 237 273 20,000  Level Indianapolis Center
Sun 03:00:20 PM 39.9883 -87.6831 343° North 240 276 20,000  Level Indianapolis Center
Sun 03:01:22 PM 40.0639 -87.7136 343° North 238 274 20,000  Level Indianapolis Center
Sun 03:02:22 PM 40.1269 -87.7394 343° North 239 275 20,000  Level Chicago Center
Sun 03:03:24 PM 40.1908 -87.7642 344° North 238 274 20,000  Level Chicago Center
Sun 03:04:26 PM 40.2586 -87.7911 343° North 238 274 20,000  Level Chicago Center
Sun 03:05:28 PM 40.3222 -87.8189 342° North 240 276 20,000  Level Chicago Center
Sun 03:06:30 PM 40.3864 -87.8439 343° North 241 277 20,000  Level Chicago Center
Sun 03:07:32 PM 40.4497 -87.8697 343° North 241 277 20,000  Level Chicago Center
Sun 03:08:34 PM 40.5144 -87.8964 343° North 244 281 20,000  Level Chicago Center
Sun 03:09:37 PM 40.5914 -87.9264 344° North 242 278 20,000  Level Chicago Center
Sun 03:10:39 PM 40.6553 -87.9528 343° North 241 277 20,000  Level Chicago Center
Sun 03:11:41 PM 40.7194 -87.9783 343° North 242 278 20,000  Level Chicago Center
Sun 03:12:43 PM 40.7842 -88.0047 343° North 244 281 20,000  Level Chicago Center
Sun 03:13:45 PM 40.8492 -88.0317 343° North 247 284 20,000  Level Chicago Center
Sun 03:14:47 PM 40.9283 -88.0636 343° North 247 284 20,000  Level Chicago Center
Sun 03:15:49 PM 40.9914 -88.0894 343° North 240 276 20,000  Level Chicago Center
Sun 03:16:51 PM 41.0536 -88.1150 343° North 234 269 20,000  Level Chicago Center
Sun 03:17:53 PM 41.1164 -88.1400 343° North 234 269 20,000  Level Chicago Center
Sun 03:18:55 PM 41.1828 -88.1203 13° North 254 292 20,000  Level Chicago Center
Sun 03:19:57 PM 41.2636 -88.0789 21° North 260 299 20,000  Level Chicago Center
Sun 03:20:59 PM 41.3294 -88.0458 21° North 257 296 20,000  Level Chicago Center
Sun 03:22:02 PM 41.4011 -88.0106 20° North 261 300 20,000  Level Chicago Center
Sun 03:23:04 PM 41.4611 -87.9794 21° North 264 304 20,000  Level Chicago Center
Sun 03:24:06 PM 41.5411 -87.9406 20° North 259 298 20,000  Level Chicago Center
Sun 03:25:08 PM 41.6081 -87.9072 20° North 259 298 20,000  Level Chicago Center
Sun 03:26:10 PM 41.6753 -87.8736 20° North 259 298 20,000 48 Level Chicago Center
Sun 03:27:12 PM 41.7425 -87.8397 21° North 260 299 20,100  Climbing Chicago Center
Sun 03:28:14 PM 41.8097 -87.8044 21° North 260 299 20,000 -48 Descending Chicago Center
Sun 03:29:16 PM 41.8919 -87.7636 20° North 265 305 20,000 48 Level Chicago Center
Sun 03:30:18 PM 41.9586 -87.7317 20° North 257 296 20,100 -435 Climbing Chicago Center
Sun 03:31:20 PM 42.0253 -87.6847 28° Northeast 272 313 19,100 -1,016 Descending Chicago Center
Sun 03:32:22 PM 42.0892 -87.6142 39° Northeast 295 339 18,000 -1,008 Descending Chicago Center
Sun 03:33:25 PM 42.1622 -87.5850 16° North 283 326 17,000 -960 Descending Chicago Center
Sun 03:34:27 PM 42.2450 -87.5500 17° North 262 302 16,000 -484 Descending Chicago Center
Sun 03:35:29 PM 42.3086 -87.5219 18° North 245 282 16,000 -387 Level Chicago Center
Sun 03:36:31 PM 42.3767 -87.4944 17° North 254 292 15,200 -919 Descending Chicago Center
Sun 03:37:33 PM 42.4544 -87.4583 19° North 293 337 14,100 -774 Descending Chicago Center
Sun 03:38:35 PM 42.5289 -87.4256 18° North 286 329 13,600 -871 Descending Chicago Center
Sun 03:39:37 PM 42.5897 -87.4592 338° Northwest 239 275 12,300 -1,161 Descending Chicago Center
Sun 03:40:39 PM 42.6208 -87.5281 302° West 213 245 11,200 -1,113 Descending Chicago Center
Sun 03:41:41 PM 42.6519 -87.5950 302° West 209 241 10,000 -1,161 Descending Chicago Center
Sun 03:42:43 PM 42.6808 -87.6608 301° West 206 237 8,800 -1,258 Descending Chicago Center
Sun 03:43:45 PM 42.7150 -87.7481 298° West 217 250 7,400 -1,248 Descending Chicago Center
Sun 03:44:48 PM 42.7469 -87.8208 301° West 214 246 6,200 -672 Descending Chicago Center
Sun 03:45:50 PM 42.7781 -87.8889 302° West 213 245 6,000 -97 Descending Chicago Center
Sun 03:46:52 PM 42.8058 -87.9597 298° West 213 245 6,000  Level Chicago Center
Sun 03:47:54 PM 42.8317 -88.0328 296° West 215 247 6,000  Level Chicago Center
Sun 03:48:56 PM 42.8561 -88.1064 294° West 215 247 6,000 -484 Level Chicago Center
Sun 03:49:58 PM 42.8825 -88.1867 294° West 203 234 5,000 -823 Descending Chicago Center
Sun 03:51:00 PM 42.9028 -88.2533 293° West 202 232 4,300 -769 Descending Chicago Center
Sun 03:52:34 PM 42.9500 -88.3500 304° West 171 197 3,000 -488 Descending KMKE
Sun 03:53:40 PM 42.9667 -88.4167 289° West 162 186 3,000  Level KMKE
Sun 03:54:34 PM 42.9833 -88.4667 295° West 147 169 3,000  Level KMKE
Sun 03:55:35 PM 43.0167 -88.4500 20° North 127 146 3,000  Level KMKE
Sun 03:56:35 PM 43.0500 -88.4500 360° North 121 139 3,000  Level KMKE
Sun 03:57:35 PM 43.0667 -88.4000 65° Northeast 133 153 3,000 -286 Level KMKE
Sun 03:58:41 PM 43.0667 -88.3500 90° East 124 143 2,400 -571 Descending KMKE
Sun 03:59:41 PM 43.0500 -88.3167 124° Southeast 129 148 1,800 -600 Descending KMKE
Sun 04:00:41 PM 43.0500 -88.2667 90° East 121 139 1,200 -600 Descending KMKE

Login

Don't have an account? Register now (free) for customized features, flight alerts, and more!